createdAt,value
2022-08-03T00:00:50.907Z,101573.53
2022-08-03T00:03:21.290Z,101574.53
2022-08-03T00:06:04.147Z,101578.06
2022-08-03T00:08:40.123Z,101573.69
2022-08-03T00:11:10.578Z,101575.47
2022-08-03T00:13:41.157Z,101572.00
2022-08-03T00:16:13.665Z,101580.91
2022-08-03T00:18:44.087Z,101577.38
2022-08-03T00:21:14.737Z,101580.81
2022-08-03T00:23:52.266Z,101579.94
2022-08-03T00:26:23.396Z,101575.47
2022-08-03T00:28:53.758Z,101577.16
2022-08-03T00:31:32.872Z,101567.25
2022-08-03T00:34:15.827Z,101569.09
2022-08-03T00:36:46.015Z,101567.47
2022-08-03T00:39:16.515Z,101563.91
2022-08-03T00:41:46.625Z,101562.06
2022-08-03T00:44:16.616Z,101555.75
2022-08-03T00:46:48.426Z,101553.91
2022-08-03T00:49:18.225Z,101548.53
2022-08-03T00:51:48.655Z,101545.03
2022-08-03T00:54:19.527Z,101544.22
2022-08-03T00:57:00.338Z,101538.03
2022-08-03T00:59:31.747Z,101545.22
2022-08-03T01:02:03.207Z,101539.00
2022-08-03T01:04:33.396Z,101536.38
2022-08-03T01:07:13.005Z,101525.69
2022-08-03T01:09:54.168Z,101532.66
2022-08-03T01:12:34.246Z,101528.13
2022-08-03T01:15:12.323Z,101525.47
2022-08-03T01:17:53.237Z,101525.47
2022-08-03T01:20:26.475Z,101520.22
2022-08-03T01:23:37.216Z,101521.00
2022-08-03T01:26:27.224Z,101519.19
2022-08-03T01:29:10.596Z,101519.28
2022-08-03T01:32:54.510Z,101512.03
2022-08-03T01:34:42.976Z,101514.63
2022-08-03T01:37:14.736Z,101510.31
2022-08-03T01:39:46.727Z,101517.50
2022-08-03T01:42:18.829Z,101512.16
2022-08-03T01:44:51.287Z,101511.16
2022-08-03T01:47:24.186Z,101500.47
2022-08-03T01:49:56.157Z,101500.44
2022-08-03T01:52:26.526Z,101505.81
2022-08-03T01:54:57.589Z,101500.44
2022-08-03T01:57:29.274Z,101500.50
2022-08-03T02:00:01.690Z,101495.16
2022-08-03T02:02:43.970Z,101499.59
2022-08-03T02:05:16.424Z,101498.72
2022-08-03T02:07:49.667Z,101493.28
2022-08-03T02:10:35.107Z,101490.53
2022-08-03T02:13:09.187Z,101496.84
2022-08-03T02:15:40.726Z,101494.25
2022-08-03T02:18:13.406Z,101489.69
2022-08-03T02:20:46.044Z,101489.75
2022-08-03T02:23:18.579Z,101489.66
2022-08-03T02:25:54.615Z,101488.78
2022-08-03T02:28:29.594Z,101488.81
2022-08-03T02:31:04.544Z,101488.81
2022-08-03T02:33:41.607Z,101490.50
2022-08-03T02:36:15.794Z,101494.91
2022-08-03T02:38:51.236Z,101487.72
2022-08-03T02:41:27.006Z,101486.88
2022-08-03T02:44:07.095Z,101483.25
2022-08-03T02:46:41.275Z,101485.03
2022-08-03T02:49:49.446Z,101478.78
2022-08-03T02:52:07.800Z,101483.25
2022-08-03T02:54:43.413Z,101483.16
2022-08-03T02:57:15.333Z,101484.91
2022-08-03T02:59:46.498Z,101483.28
2022-08-03T03:02:19.725Z,101485.00
2022-08-03T03:05:50.938Z,101484.06
2022-08-03T03:07:51.792Z,101481.44
2022-08-03T03:10:24.682Z,101485.88
2022-08-03T03:12:57.597Z,101485.91
2022-08-03T03:15:29.515Z,101485.88
2022-08-03T03:18:01.224Z,101484.97
2022-08-03T03:20:34.166Z,101485.84
2022-08-03T03:23:05.731Z,101478.78
2022-08-03T03:25:36.075Z,101480.50
2022-08-03T03:28:07.235Z,101481.41
2022-08-03T03:30:37.552Z,101476.09
2022-08-03T03:33:08.264Z,101479.56
2022-08-03T03:35:40.613Z,101474.22
2022-08-03T03:38:12.935Z,101474.28
2022-08-03T03:40:43.397Z,101472.47
2022-08-03T03:43:14.649Z,101481.38
2022-08-03T03:45:44.886Z,101480.47
2022-08-03T03:48:15.450Z,101479.53
2022-08-03T03:50:47.998Z,101482.06
2022-08-03T03:53:18.498Z,101493.63
2022-08-03T03:55:58.914Z,101490.94
2022-08-03T03:58:34.347Z,101486.44
2022-08-03T04:01:04.562Z,101483.72
2022-08-03T04:03:34.857Z,101494.28
2022-08-03T04:06:23.617Z,101490.56
2022-08-03T04:09:11.024Z,101494.19
2022-08-03T04:11:45.256Z,101492.19
2022-08-03T04:14:20.066Z,101496.66
2022-08-03T04:16:55.256Z,101496.63
2022-08-03T04:19:29.938Z,101497.38
2022-08-03T04:22:05.769Z,101506.19
2022-08-03T04:24:42.727Z,101494.53
2022-08-03T04:27:17.047Z,101499.56
2022-08-03T04:29:50.935Z,101499.53
2022-08-03T04:32:25.496Z,101500.34
2022-08-03T04:34:56.420Z,101502.84
2022-08-03T04:37:35.077Z,101501.94
2022-08-03T04:40:10.596Z,101511.53
2022-08-03T04:42:42.316Z,101513.22
2022-08-03T04:45:16.688Z,101505.16
2022-08-03T04:47:47.255Z,101499.72
2022-08-03T04:50:21.592Z,101508.59
2022-08-03T04:53:08.866Z,101504.00
2022-08-03T04:55:39.830Z,101507.16
2022-08-03T04:58:10.015Z,101515.00
2022-08-03T05:00:40.782Z,101522.50
2022-08-03T05:03:20.274Z,101517.94
2022-08-03T05:06:01.670Z,101527.66
2022-08-03T05:08:46.874Z,101526.28
2022-08-03T05:11:19.862Z,101513.72
2022-08-03T05:13:50.185Z,101520.69
2022-08-03T05:16:20.826Z,101523.78
2022-08-03T05:18:50.949Z,101517.03
2022-08-03T05:21:21.336Z,101512.13
2022-08-03T05:23:52.799Z,101521.34
2022-08-03T05:26:23.057Z,101520.09
2022-08-03T05:28:53.568Z,101527.38
2022-08-03T05:31:23.646Z,101523.47
2022-08-03T05:33:54.339Z,101527.75
2022-08-03T05:36:24.337Z,101523.13
2022-08-03T05:38:59.556Z,101526.41
2022-08-03T05:41:37.208Z,101521.16
2022-08-03T05:44:08.086Z,101518.09
2022-08-03T05:46:38.547Z,101519.47
2022-08-03T05:49:09.759Z,101523.28
2022-08-03T05:51:40.108Z,101531.97
2022-08-03T05:54:11.699Z,101522.34
2022-08-03T05:56:42.447Z,101531.72
2022-08-03T05:59:37.002Z,101519.06
2022-08-03T06:02:02.937Z,101510.09
2022-08-03T06:04:33.203Z,101512.13
2022-08-03T06:07:03.788Z,101518.56
2022-08-03T06:10:35.524Z,101515.16
2022-08-03T06:12:26.366Z,101519.97
2022-08-03T06:14:57.146Z,101524.94
2022-08-03T06:17:27.287Z,101529.16
2022-08-03T06:20:08.837Z,101527.44
2022-08-03T06:22:50.414Z,101529.22
2022-08-03T06:25:23.389Z,101525.97
2022-08-03T06:27:53.649Z,101521.28
2022-08-03T06:30:24.550Z,101519.16
2022-08-03T06:32:55.168Z,101525.97
2022-08-03T06:35:28.150Z,101523.97
2022-08-03T06:37:58.547Z,101516.13
2022-08-03T06:40:33.219Z,101524.25
2022-08-03T06:43:04.369Z,101521.19
2022-08-03T06:45:35.902Z,101523.88
2022-08-03T06:48:08.548Z,101520.59
2022-08-03T06:50:40.677Z,101519.81
2022-08-03T06:53:19.661Z,101524.78
2022-08-03T06:55:55.198Z,101517.53
2022-08-03T06:58:25.470Z,101520.22
2022-08-03T07:00:56.595Z,101520.41
2022-08-03T07:03:27.517Z,101524.94
2022-08-03T07:05:58.261Z,101521.69
2022-08-03T07:08:34.087Z,101518.94
2022-08-03T07:11:08.278Z,101511.78
2022-08-03T07:13:38.518Z,101504.50
2022-08-03T07:16:09.397Z,101518.88
2022-08-03T07:18:41.255Z,101508.81
2022-08-03T07:21:12.999Z,101515.22
2022-08-03T07:23:43.187Z,101511.34
2022-08-03T07:26:15.738Z,101513.06
2022-08-03T07:28:46.203Z,101508.41
2022-08-03T07:31:17.020Z,101514.81
2022-08-03T07:33:47.619Z,101506.59
2022-08-03T07:36:18.716Z,101505.53
2022-08-03T07:38:49.112Z,101509.25
2022-08-03T07:41:21.280Z,101511.19
2022-08-03T07:43:54.376Z,101505.91
2022-08-03T07:46:25.108Z,101506.00
2022-08-03T07:48:59.858Z,101510.53
2022-08-03T07:51:30.686Z,101496.78
2022-08-03T07:54:01.767Z,101499.81
2022-08-03T07:56:34.133Z,101496.97
2022-08-03T07:59:06.168Z,101499.56
2022-08-03T08:01:38.256Z,101492.47
2022-08-03T08:04:10.247Z,101499.19
2022-08-03T08:06:40.949Z,101501.53
2022-08-03T08:09:11.940Z,101496.53
2022-08-03T08:11:44.253Z,101498.94
2022-08-03T08:14:15.029Z,101500.19
2022-08-03T08:16:46.998Z,101489.84
2022-08-03T08:19:18.311Z,101491.94
2022-08-03T08:21:52.951Z,101483.75
2022-08-03T08:24:32.607Z,101477.63
2022-08-03T08:27:05.915Z,101479.81
2022-08-03T08:29:36.968Z,101484.88
2022-08-03T08:32:19.999Z,101483.00
2022-08-03T08:34:50.730Z,101483.13
2022-08-03T08:37:21.069Z,101487.03
2022-08-03T08:39:52.547Z,101489.88
2022-08-03T08:42:24.630Z,101494.50
2022-08-03T08:44:55.856Z,101483.00
2022-08-03T08:47:27.970Z,101486.06
2022-08-03T08:50:09.710Z,101486.94
2022-08-03T08:52:43.447Z,101486.94
2022-08-03T08:55:19.180Z,101480.38
2022-08-03T08:57:54.277Z,101486.28
2022-08-03T09:00:24.810Z,101485.28
2022-08-03T09:02:55.385Z,101481.91
2022-08-03T09:05:41.580Z,101485.78
2022-08-03T09:08:16.842Z,101483.00
2022-08-03T09:10:47.220Z,101482.75
2022-08-03T09:13:19.357Z,101492.09
2022-08-03T09:16:00.986Z,101489.41
2022-08-03T09:18:33.250Z,101483.94
2022-08-03T09:21:35.501Z,101488.84
2022-08-03T09:24:20.636Z,101487.59
2022-08-03T09:27:26.236Z,101484.19
2022-08-03T09:30:00.966Z,101483.34
2022-08-03T09:32:32.816Z,101477.97
2022-08-03T09:35:09.557Z,101487.22
2022-08-03T09:38:12.467Z,101487.06
2022-08-03T09:40:37.808Z,101479.84
2022-08-03T09:43:09.229Z,101481.97
2022-08-03T09:45:42.740Z,101477.66
2022-08-03T09:48:27.735Z,101485.25
2022-08-03T09:51:12.749Z,101490.16
2022-08-03T09:53:58.665Z,101479.69
2022-08-03T09:56:41.947Z,101481.56
2022-08-03T09:59:13.132Z,101481.06
2022-08-03T10:01:46.021Z,101474.25
2022-08-03T10:04:17.728Z,101484.69
2022-08-03T10:07:05.597Z,101484.44
2022-08-03T10:09:36.101Z,101480.22
2022-08-03T10:12:15.108Z,101473.00
2022-08-03T10:14:47.987Z,101482.63
2022-08-03T10:17:29.017Z,101467.16
2022-08-03T10:20:00.524Z,101466.44
2022-08-03T10:22:34.802Z,101477.34
2022-08-03T10:25:10.137Z,101464.66
2022-08-03T10:27:45.918Z,101468.63
2022-08-03T10:30:17.470Z,101467.16
2022-08-03T10:32:55.209Z,101472.28
2022-08-03T10:35:26.963Z,101464.38
2022-08-03T10:38:01.138Z,101468.41
2022-08-03T10:40:51.797Z,101456.44
2022-08-03T10:43:29.428Z,101453.38
2022-08-03T10:46:00.919Z,101461.78
2022-08-03T10:48:33.239Z,101462.84
2022-08-03T10:51:03.800Z,101458.06
2022-08-03T10:53:38.828Z,101464.75
2022-08-03T10:56:50.332Z,101445.81
2022-08-03T10:59:28.052Z,101457.38
2022-08-03T11:02:00.700Z,101447.31
2022-08-03T11:04:33.839Z,101450.16
2022-08-03T11:07:24.418Z,101435.81
2022-08-03T11:09:56.397Z,101456.19
2022-08-03T11:12:30.213Z,101456.53
2022-08-03T11:15:04.989Z,101441.56
2022-08-03T11:17:46.432Z,101449.19
2022-08-03T11:20:50.580Z,101440.53
2022-08-03T11:24:03.214Z,101444.06
2022-08-03T11:26:33.353Z,101435.84
2022-08-03T11:29:30.733Z,101437.91
2022-08-03T11:32:01.629Z,101445.56
2022-08-03T11:34:32.059Z,101430.09
2022-08-03T11:37:30.117Z,101438.38
2022-08-03T11:40:03.849Z,101431.34
2022-08-03T11:42:48.678Z,101429.97
2022-08-03T11:45:20.187Z,101412.03
2022-08-03T11:47:55.725Z,101428.94
2022-08-03T11:50:26.375Z,101423.75
2022-08-03T11:52:58.307Z,101428.72
2022-08-03T11:55:30.620Z,101430.81
2022-08-03T11:58:58.272Z,101427.91
2022-08-03T12:00:53.158Z,101421.59
2022-08-03T12:03:23.702Z,101417.97
2022-08-03T12:05:55.718Z,101416.59
2022-08-03T12:08:37.080Z,101415.81
2022-08-03T12:11:09.270Z,101408.22
2022-08-03T12:14:44.207Z,101408.78
2022-08-03T12:16:32.187Z,101415.81
2022-08-03T12:19:02.840Z,101416.69
2022-08-03T12:21:33.281Z,101397.59
2022-08-03T12:24:07.309Z,101403.59
2022-08-03T12:26:58.603Z,101402.25
2022-08-03T12:29:31.610Z,101404.00
2022-08-03T12:32:02.278Z,101403.72
2022-08-03T12:34:49.110Z,101396.44
2022-08-03T12:37:23.354Z,101400.97
2022-08-03T12:40:03.080Z,101388.75
2022-08-03T12:42:38.839Z,101389.50
2022-08-03T12:45:32.435Z,101389.13
2022-08-03T12:48:04.178Z,101393.59
2022-08-03T12:50:36.822Z,101388.38
2022-08-03T12:53:09.223Z,101384.06
2022-08-03T12:56:04.828Z,101386.13
2022-08-03T12:58:34.786Z,101382.66
2022-08-03T13:01:09.688Z,101382.03
2022-08-03T13:03:49.498Z,101380.13
2022-08-03T13:06:22.520Z,101374.03
2022-08-03T13:09:04.068Z,101383.56
2022-08-03T13:11:55.715Z,101372.53
2022-08-03T13:14:29.638Z,101369.53
2022-08-03T13:17:00.504Z,101369.34
2022-08-03T13:19:31.370Z,101362.28
2022-08-03T13:22:04.592Z,101361.69
2022-08-03T13:24:35.797Z,101359.25
2022-08-03T13:28:01.326Z,101364.28
2022-08-03T13:29:59.094Z,101365.09
2022-08-03T13:32:29.839Z,101361.28
2022-08-03T13:35:00.181Z,101353.94
2022-08-03T13:37:32.628Z,101368.81
2022-08-03T13:40:05.508Z,101363.72
2022-08-03T13:42:38.943Z,101360.03
2022-08-03T13:45:11.645Z,101359.81
2022-08-03T13:47:42.240Z,101355.38
2022-08-03T13:50:12.496Z,101352.25
2022-08-03T13:52:42.779Z,101348.69
2022-08-03T13:55:12.968Z,101356.88
2022-08-03T13:58:11.380Z,101350.69
2022-08-03T14:00:35.527Z,101350.34
2022-08-03T14:03:13.247Z,101355.09
2022-08-03T14:05:48.592Z,101356.78
2022-08-03T14:08:18.953Z,101347.41
2022-08-03T14:10:50.198Z,101355.84
2022-08-03T14:13:22.770Z,101341.66
2022-08-03T14:15:53.509Z,101349.66
2022-08-03T14:18:28.477Z,101346.19
2022-08-03T14:21:05.529Z,101340.94
2022-08-03T14:23:38.016Z,101336.03
2022-08-03T14:26:09.059Z,101335.75
2022-08-03T14:28:40.961Z,101332.84
2022-08-03T14:32:09.159Z,101335.13
2022-08-03T14:34:01.809Z,101330.97
2022-08-03T14:36:33.635Z,101330.94
2022-08-03T14:39:04.507Z,101326.66
2022-08-03T14:41:35.271Z,101331.19
2022-08-03T14:44:07.079Z,101331.94
2022-08-03T14:46:37.460Z,101328.47
2022-08-03T14:50:38.973Z,101320.97
2022-08-03T14:51:58.859Z,101329.63
2022-08-03T14:54:31.260Z,101328.91
2022-08-03T14:57:01.749Z,101321.59
2022-08-03T14:59:55.734Z,101319.72
2022-08-03T15:02:25.260Z,101316.94
2022-08-03T15:04:55.092Z,101311.22
2022-08-03T15:07:25.865Z,101312.56
2022-08-03T15:09:56.222Z,101312.50
2022-08-03T15:12:26.972Z,101322.03
2022-08-03T15:14:59.092Z,101313.97
2022-08-03T15:17:30.534Z,101316.00
2022-08-03T15:20:28.828Z,101311.06
2022-08-03T15:22:53.712Z,101314.25
2022-08-03T15:26:32.397Z,101311.84
2022-08-03T15:28:14.552Z,101308.25
2022-08-03T15:30:46.193Z,101316.50
2022-08-03T15:33:16.453Z,101312.88
2022-08-03T15:35:47.333Z,101302.56
2022-08-03T15:38:18.026Z,101306.59
2022-08-03T15:40:48.060Z,101311.78
2022-08-03T15:43:18.480Z,101311.25
2022-08-03T15:46:19.181Z,101302.38
2022-08-03T15:48:41.629Z,101299.16
2022-08-03T15:51:12.252Z,101294.09
2022-08-03T15:53:42.851Z,101295.00
2022-08-03T15:56:18.157Z,101290.78
2022-08-03T15:59:04.551Z,101302.22
2022-08-03T16:01:40.901Z,101298.16
2022-08-03T16:04:14.809Z,101297.75
2022-08-03T16:06:45.120Z,101293.75
2022-08-03T16:09:24.026Z,101298.38
2022-08-03T16:12:06.459Z,101296.03
2022-08-03T16:14:54.258Z,101293.75
2022-08-03T16:17:26.327Z,101291.44
2022-08-03T16:19:59.312Z,101287.25
2022-08-03T16:22:31.790Z,101291.34
2022-08-03T16:25:13.990Z,101291.19
2022-08-03T16:28:03.177Z,101283.66
2022-08-03T16:30:42.062Z,101280.38
2022-08-03T16:33:17.373Z,101283.97
2022-08-03T16:35:49.993Z,101283.34
2022-08-03T16:38:20.991Z,101282.81
2022-08-03T16:40:52.489Z,101283.66
2022-08-03T16:43:24.871Z,101297.72
2022-08-03T16:45:56.073Z,101285.75
2022-08-03T16:48:30.214Z,101284.38
2022-08-03T16:51:00.742Z,101289.53
2022-08-03T16:53:33.732Z,101284.88
2022-08-03T16:56:23.096Z,101288.94
2022-08-03T16:58:53.729Z,101277.94
2022-08-03T17:01:35.716Z,101281.03
2022-08-03T17:04:13.427Z,101280.56
2022-08-03T17:06:45.620Z,101281.44
2022-08-03T17:09:20.504Z,101287.31
2022-08-03T17:11:52.932Z,101289.72
2022-08-03T17:14:28.526Z,101290.09
2022-08-03T17:17:03.864Z,101287.91
2022-08-03T17:19:36.742Z,101288.03
2022-08-03T17:22:18.538Z,101290.19
2022-08-03T17:24:54.533Z,101289.38
2022-08-03T17:28:48.767Z,101298.56
2022-08-03T17:30:21.553Z,101305.56
2022-08-03T17:32:58.044Z,101302.97
2022-08-03T17:35:34.397Z,101297.16
2022-08-03T17:38:13.935Z,101298.47
2022-08-03T17:40:48.088Z,101296.72
2022-08-03T17:44:08.173Z,101296.19
2022-08-03T17:46:12.921Z,101301.97
2022-08-03T17:48:43.839Z,101305.00
2022-08-03T17:51:24.494Z,101302.34
2022-08-03T17:54:06.081Z,101304.53
2022-08-03T17:57:00.290Z,101311.75
2022-08-03T18:00:27.550Z,101311.19
2022-08-03T18:03:20.741Z,101312.13
2022-08-03T18:06:10.585Z,101315.44
2022-08-03T18:08:53.231Z,101328.41
2022-08-03T18:11:37.104Z,101324.69
2022-08-03T18:14:16.269Z,101319.91
2022-08-03T18:16:55.901Z,101324.69
2022-08-03T18:20:01.918Z,101320.22
2022-08-03T18:22:25.255Z,101328.34
2022-08-03T18:24:58.773Z,101326.56
2022-08-03T18:27:42.756Z,101334.59
2022-08-03T18:30:17.141Z,101331.66
2022-08-03T18:33:00.908Z,101333.75
2022-08-03T18:35:52.779Z,101341.81
2022-08-03T18:38:25.183Z,101349.06
2022-08-03T18:40:58.451Z,101350.78
2022-08-03T18:46:36.185Z,101353.13
2022-08-03T18:49:22.108Z,101356.66
2022-08-03T18:52:03.417Z,101353.19
2022-08-03T18:55:03.855Z,101363.25
2022-08-03T18:57:46.374Z,101363.97
2022-08-03T19:00:24.348Z,101369.72
2022-08-03T19:03:06.171Z,101366.34
2022-08-03T19:05:56.558Z,101368.22
2022-08-03T19:08:43.343Z,101371.28
2022-08-03T19:11:28.175Z,101370.03
2022-08-03T19:14:04.519Z,101365.66
2022-08-03T19:16:39.438Z,101373.25
2022-08-03T19:19:14.662Z,101377.91
2022-08-03T19:21:49.960Z,101380.16
2022-08-03T19:24:23.988Z,101382.78
2022-08-03T19:26:59.019Z,101383.06
2022-08-03T19:29:58.890Z,101379.59
2022-08-03T19:32:30.433Z,101388.78
2022-08-03T19:35:03.187Z,101390.47
2022-08-03T19:37:40.154Z,101391.34
2022-08-03T19:40:15.550Z,101384.19
2022-08-03T19:43:04.067Z,101391.13
2022-08-03T19:46:05.305Z,101386.91
2022-08-03T19:48:47.023Z,101389.09
2022-08-03T19:51:58.444Z,101386.00
2022-08-03T19:54:25.539Z,101390.75
2022-08-03T19:57:15.987Z,101397.13
2022-08-03T19:59:58.429Z,101404.53
2022-08-03T20:02:37.329Z,101407.28
2022-08-03T20:05:14.778Z,101396.56
2022-08-03T20:07:48.707Z,101410.31
2022-08-03T20:10:19.641Z,101406.25
2022-08-03T20:12:52.453Z,101407.72
2022-08-03T20:15:31.357Z,101396.44
2022-08-03T20:18:04.453Z,101404.56
2022-08-03T20:20:37.419Z,101411.19
2022-08-03T20:23:10.439Z,101417.75
2022-08-03T20:25:48.888Z,101416.78
2022-08-03T20:28:49.674Z,101410.56
2022-08-03T20:31:32.505Z,101423.06
2022-08-03T20:34:09.213Z,101418.81
2022-08-03T20:36:45.398Z,101419.22
2022-08-03T20:39:17.344Z,101413.56
2022-08-03T20:41:49.761Z,101414.53
2022-08-03T20:44:25.900Z,101419.63
2022-08-03T20:49:51.390Z,101420.75
2022-08-03T20:52:26.173Z,101434.00
2022-08-03T20:54:58.646Z,101428.09
2022-08-03T20:57:34.771Z,101429.72
2022-08-03T21:00:13.199Z,101431.63
2022-08-03T21:02:44.497Z,101421.44
2022-08-03T21:05:16.580Z,101427.63
2022-08-03T21:08:06.402Z,101423.25
2022-08-03T21:10:42.231Z,101423.81
2022-08-03T21:12:59.025Z,101351.91
2022-08-03T21:13:13.048Z,101423.25
2022-08-03T21:13:23.437Z,101430.66
2022-08-03T21:16:12.136Z,101427.00
2022-08-03T21:18:48.880Z,101429.78
2022-08-03T21:21:22.769Z,101425.72
2022-08-03T21:23:57.508Z,101437.59
2022-08-03T21:26:30.871Z,101429.97
2022-08-03T21:29:06.622Z,101442.63
2022-08-03T21:31:43.251Z,101441.00
2022-08-03T21:34:14.639Z,101442.69
2022-08-03T21:36:47.154Z,101448.06
2022-08-03T21:39:23.138Z,101450.53
2022-08-03T21:41:57.503Z,101446.81
2022-08-03T21:44:47.831Z,101446.84
2022-08-03T21:47:20.457Z,101448.88
2022-08-03T21:50:08.373Z,101445.47
2022-08-03T21:52:47.499Z,101446.59
2022-08-03T21:55:20.771Z,101454.03
2022-08-03T21:57:56.418Z,101448.66
2022-08-03T22:00:39.098Z,101447.69
2022-08-03T22:03:17.929Z,101453.06
2022-08-03T22:05:51.565Z,101457.34
2022-08-03T22:08:36.999Z,101462.88
2022-08-03T22:11:08.613Z,101461.16
2022-08-03T22:13:43.575Z,101462.53
2022-08-03T22:16:16.732Z,101462.66
2022-08-03T22:18:48.110Z,101457.31
2022-08-03T22:21:27.884Z,101466.34
2022-08-03T22:24:09.152Z,101473.72
2022-08-03T22:27:02.980Z,101470.34
2022-08-03T22:29:35.118Z,101465.47
2022-08-03T22:32:05.818Z,101472.84
2022-08-03T22:34:38.791Z,101476.53
2022-08-03T22:37:12.816Z,101469.16
2022-08-03T22:39:46.130Z,101470.00
2022-08-03T22:42:21.380Z,101470.06
2022-08-03T22:44:57.783Z,101473.03
2022-08-03T22:47:28.501Z,101472.50
2022-08-03T22:50:31.354Z,101477.00
2022-08-03T22:52:51.441Z,101481.59
2022-08-03T22:55:26.359Z,101482.06
2022-08-03T22:57:57.051Z,101482.06
2022-08-03T23:00:27.342Z,101484.94
2022-08-03T23:03:01.799Z,101484.41
2022-08-03T23:06:02.507Z,101484.56
2022-08-03T23:08:27.421Z,101494.03
2022-08-03T23:11:05.123Z,101492.28
2022-08-03T23:13:36.342Z,101486.03
2022-08-03T23:16:08.371Z,101489.59
2022-08-03T23:18:41.232Z,101487.97
2022-08-03T23:21:12.951Z,101485.47
2022-08-03T23:23:46.172Z,101491.63
2022-08-03T23:26:21.865Z,101490.91
2022-08-03T23:28:52.833Z,101482.78
2022-08-03T23:31:24.164Z,101491.91
2022-08-03T23:34:16.416Z,101480.66
2022-08-03T23:36:49.413Z,101482.47
2022-08-03T23:39:22.347Z,101482.41
2022-08-03T23:41:54.933Z,101488.41
2022-08-03T23:44:26.973Z,101483.22
2022-08-03T23:46:56.945Z,101492.38
2022-08-03T23:49:27.315Z,101482.50
2022-08-03T23:52:04.575Z,101478.78
2022-08-03T23:54:48.223Z,101477.97
2022-08-03T23:57:27.803Z,101482.66
